Time;durP1;ratioP1;P1;durP2;ratioP2;P2;SDS_P1;SDS_P2;PMS_P1;PMS_P2;Temp;Humidity;BMP_temperature;BMP_pressure;BME280_temperature;BME280_humidity;BME280_pressure;Samples;Min_cycle;Max_cycle;Signal;HPM_P1;HPM_P2
2023/12/08 00:02:01;;;;;;;6.60;3.08;;;3.30;99.90;;;;;;5011178;28;20046;-80
2023/12/08 00:04:27;;;;;;;6.43;3.80;;;3.40;99.90;;;;;;4980014;28;20053;-80
2023/12/08 00:06:52;;;;;;;4.28;2.63;;;3.40;99.90;;;;;;4978352;28;20026;-80
2023/12/08 00:09:18;;;;;;;7.90;4.63;;;3.40;99.90;;;;;;4985460;28;20042;-80
2023/12/08 00:11:44;;;;;;;6.97;3.75;;;3.40;99.90;;;;;;4995382;28;20034;-81
2023/12/08 00:14:09;;;;;;;9.13;4.10;;;3.30;99.90;;;;;;4998583;28;20030;-80
2023/12/08 00:16:35;;;;;;;6.80;4.07;;;3.40;99.90;;;;;;4999187;28;20120;-80
2023/12/08 00:19:00;;;;;;;7.13;4.13;;;3.30;99.90;;;;;;4984501;28;20039;-79
2023/12/08 00:21:27;;;;;;;7.25;4.00;;;3.40;99.90;;;;;;4999249;28;20034;-80
2023/12/08 00:23:53;;;;;;;7.97;5.15;;;3.30;99.90;;;;;;5014558;28;20469;-80
2023/12/08 00:26:18;;;;;;;7.38;4.32;;;3.30;99.90;;;;;;4966400;28;20039;-81
2023/12/08 00:28:44;;;;;;;7.75;4.43;;;3.30;99.90;;;;;;4980120;28;20300;-80
2023/12/08 00:31:10;;;;;;;4.70;2.83;;;3.30;99.90;;;;;;4996510;28;20045;-80
2023/12/08 00:33:36;;;;;;;7.68;3.95;;;3.40;99.90;;;;;;4982799;28;20407;-80
2023/12/08 00:36:09;;;;;;;8.68;4.72;;;3.40;99.90;;;;;;4985706;28;20086;-80
2023/12/08 00:38:35;;;;;;;7.35;4.82;;;3.40;99.90;;;;;;4977863;28;20384;-81
2023/12/08 00:41:00;;;;;;;5.40;2.83;;;3.40;99.90;;;;;;4979077;28;20030;-80
2023/12/08 00:43:26;;;;;;;6.15;3.90;;;3.40;99.90;;;;;;4977663;28;20046;-80
2023/12/08 00:45:51;;;;;;;7.93;4.90;;;3.40;99.90;;;;;;5011157;28;20038;-77
2023/12/08 00:48:17;;;;;;;7.72;3.58;;;3.40;99.90;;;;;;4997317;28;20026;-78
2023/12/08 00:50:42;;;;;;;6.90;4.60;;;3.30;99.90;;;;;;4997709;28;20037;-76
2023/12/08 00:53:08;;;;;;;4.18;2.33;;;3.40;99.90;;;;;;4996494;28;20030;-77
2023/12/08 00:55:33;;;;;;;7.88;4.50;;;3.40;99.90;;;;;;4997359;28;20903;-77
2023/12/08 00:57:59;;;;;;;8.85;5.38;;;3.40;99.90;;;;;;4976945;28;20073;-76
2023/12/08 01:00:24;;;;;;;10.88;5.15;;;3.40;99.90;;;;;;4994717;28;20124;-77
2023/12/08 01:02:50;;;;;;;8.90;5.35;;;3.40;99.90;;;;;;4983942;28;20030;-77
2023/12/08 01:05:17;;;;;;;8.02;5.13;;;3.30;99.90;;;;;;4983805;28;20521;-77
2023/12/08 01:07:43;;;;;;;6.18;4.30;;;3.30;99.90;;;;;;4992521;28;20078;-77
2023/12/08 01:10:09;;;;;;;9.73;6.05;;;3.30;99.90;;;;;;4985200;28;20100;-77
2023/12/08 01:12:35;;;;;;;8.60;4.85;;;3.20;99.90;;;;;;4994041;28;20030;-76
2023/12/08 01:15:01;;;;;;;7.78;4.45;;;3.20;99.90;;;;;;4999516;28;20038;-76
2023/12/08 01:17:26;;;;;;;7.38;4.05;;;3.30;99.90;;;;;;4977451;28;20026;-76
2023/12/08 01:19:52;;;;;;;11.10;4.80;;;3.30;99.90;;;;;;4997902;28;20088;-77
2023/12/08 01:22:17;;;;;;;8.02;4.25;;;3.30;99.90;;;;;;5000998;28;20037;-76
2023/12/08 01:24:43;;;;;;;7.68;5.32;;;3.30;99.90;;;;;;4999708;28;20044;-76
2023/12/08 01:27:08;;;;;;;9.65;5.18;;;3.30;99.90;;;;;;4970241;28;20054;-77
2023/12/08 01:29:34;;;;;;;7.70;4.30;;;3.30;99.90;;;;;;4999970;28;20482;-76
2023/12/08 01:31:59;;;;;;;9.25;5.75;;;3.20;99.90;;;;;;4999417;28;20367;-77
2023/12/08 01:34:25;;;;;;;7.82;4.10;;;3.20;99.90;;;;;;5012152;28;20364;-77
2023/12/08 01:36:50;;;;;;;8.98;4.40;;;3.20;99.90;;;;;;4978309;28;22237;-78
2023/12/08 01:39:16;;;;;;;8.05;5.18;;;3.30;99.90;;;;;;4977075;28;20026;-76
2023/12/08 01:41:41;;;;;;;10.02;5.38;;;3.30;99.90;;;;;;4987656;28;20050;-76
2023/12/08 01:44:07;;;;;;;10.50;4.65;;;3.30;99.90;;;;;;4982073;28;20039;-77
2023/12/08 01:46:33;;;;;;;7.82;4.60;;;3.40;99.90;;;;;;4984505;28;20096;-76
2023/12/08 01:48:59;;;;;;;8.93;5.72;;;3.40;99.90;;;;;;5001759;28;20026;-76
2023/12/08 01:51:24;;;;;;;11.13;5.97;;;3.30;99.90;;;;;;5001294;28;20033;-77
2023/12/08 01:53:50;;;;;;;6.07;4.20;;;3.30;99.90;;;;;;4975272;28;20030;-77
2023/12/08 01:56:15;;;;;;;7.30;3.72;;;3.40;99.90;;;;;;4978430;28;20045;-77
2023/12/08 01:58:41;;;;;;;6.80;4.70;;;3.40;99.90;;;;;;5001943;28;20072;-77
2023/12/08 02:01:07;;;;;;;7.93;5.22;;;3.40;99.90;;;;;;4969024;28;20073;-77
2023/12/08 02:03:33;;;;;;;11.85;6.00;;;3.40;99.90;;;;;;4978746;28;20038;-76
2023/12/08 02:06:00;;;;;;;6.53;4.15;;;3.40;99.90;;;;;;4978383;28;20157;-75
2023/12/08 02:08:26;;;;;;;8.07;4.88;;;3.40;99.90;;;;;;4980143;28;20114;-75
2023/12/08 02:10:51;;;;;;;9.48;6.45;;;3.40;99.90;;;;;;4963089;28;20042;-76
2023/12/08 02:13:17;;;;;;;10.20;5.43;;;3.40;99.90;;;;;;4996050;28;20037;-76
2023/12/08 02:15:44;;;;;;;8.05;4.57;;;3.40;99.90;;;;;;4991262;28;20080;-76
2023/12/08 02:18:10;;;;;;;9.95;4.25;;;3.40;99.90;;;;;;4991578;28;20052;-77
2023/12/08 02:20:35;;;;;;;8.63;5.43;;;3.50;99.90;;;;;;4950248;28;20774;-76
2023/12/08 02:23:05;;;;;;;8.10;4.63;;;3.40;99.90;;;;;;4991728;28;20030;-77
2023/12/08 02:25:31;;;;;;;8.48;5.38;;;3.40;99.90;;;;;;4969998;28;20266;-77
2023/12/08 02:27:56;;;;;;;7.60;5.32;;;3.50;99.90;;;;;;4999749;28;20484;-77
2023/12/08 02:30:22;;;;;;;12.32;5.28;;;3.50;99.90;;;;;;5000629;28;20406;-76
2023/12/08 02:32:58;;;;;;;6.55;4.30;;;3.50;99.90;;;;;;4998893;28;20161;-76
2023/12/08 02:35:24;;;;;;;7.32;4.63;;;3.50;99.90;;;;;;4986496;28;20045;-76
2023/12/08 02:37:50;;;;;;;10.00;6.38;;;3.50;99.90;;;;;;4985890;28;20034;-77
2023/12/08 02:40:16;;;;;;;6.47;4.70;;;3.50;99.90;;;;;;5002691;28;20041;-77
2023/12/08 02:42:41;;;;;;;12.57;5.60;;;3.50;99.90;;;;;;4985821;28;20113;-77
2023/12/08 02:45:07;;;;;;;7.60;4.28;;;3.50;99.90;;;;;;4966531;28;20045;-76
2023/12/08 02:47:33;;;;;;;9.05;5.00;;;3.50;99.90;;;;;;4968291;28;20038;-76
2023/12/08 02:49:58;;;;;;;10.20;5.72;;;3.60;99.90;;;;;;4967669;28;20034;-76
2023/12/08 02:52:24;;;;;;;9.93;5.80;;;3.50;99.90;;;;;;4995256;28;20064;-76
2023/12/08 02:54:49;;;;;;;8.30;5.40;;;3.60;99.90;;;;;;4986941;28;20084;-76
2023/12/08 02:57:15;;;;;;;9.35;5.75;;;3.60;99.90;;;;;;4982905;28;20109;-76
2023/12/08 02:59:40;;;;;;;9.05;5.70;;;3.60;99.90;;;;;;4969504;28;20027;-77
2023/12/08 03:02:06;;;;;;;12.20;6.45;;;3.60;99.90;;;;;;4987967;28;20044;-76
2023/12/08 03:04:32;;;;;;;7.35;4.20;;;3.60;99.90;;;;;;4994811;28;20120;-79
2023/12/08 03:06:57;;;;;;;10.85;5.32;;;3.60;99.90;;;;;;4999415;28;20030;-80
2023/12/08 03:09:23;;;;;;;8.10;5.35;;;3.60;99.90;;;;;;4991746;28;20038;-80
2023/12/08 03:11:48;;;;;;;9.10;5.57;;;3.50;99.90;;;;;;4974695;28;20057;-81
2023/12/08 03:14:14;;;;;;;8.88;6.18;;;3.50;99.90;;;;;;4983191;28;20091;-80
2023/12/08 03:16:39;;;;;;;10.43;5.85;;;3.40;99.90;;;;;;4971345;28;20496;-80
2023/12/08 03:19:05;;;;;;;11.00;6.32;;;3.30;99.90;;;;;;4968324;28;20045;-80
2023/12/08 03:21:31;;;;;;;12.35;7.15;;;3.40;99.90;;;;;;4984608;28;20049;-80
2023/12/08 03:23:56;;;;;;;13.00;6.35;;;3.40;99.90;;;;;;4997555;28;20059;-80
2023/12/08 03:26:22;;;;;;;11.45;6.07;;;3.40;99.90;;;;;;4981505;28;20120;-80
2023/12/08 03:28:47;;;;;;;12.20;6.28;;;3.40;99.90;;;;;;4985534;28;20037;-80
2023/12/08 03:31:26;;;;;;;12.27;6.35;;;3.30;99.90;;;;;;5000906;28;20030;-80
2023/12/08 03:33:52;;;;;;;7.90;4.88;;;3.30;99.90;;;;;;5001779;28;20565;-80
2023/12/08 03:36:17;;;;;;;10.15;6.13;;;3.30;99.90;;;;;;4998779;28;20136;-81
2023/12/08 03:38:43;;;;;;;10.70;6.22;;;3.30;99.90;;;;;;4985968;28;20045;-80
2023/12/08 03:41:09;;;;;;;11.32;5.97;;;3.20;99.90;;;;;;4991602;28;20030;-80
2023/12/08 03:43:35;;;;;;;13.00;7.38;;;3.30;99.90;;;;;;4983248;28;20034;-79
2023/12/08 03:46:00;;;;;;;11.98;6.15;;;3.20;99.90;;;;;;4995886;28;20045;-79
2023/12/08 03:48:27;;;;;;;6.88;4.32;;;3.20;99.90;;;;;;4994099;28;20125;-80
2023/12/08 03:50:52;;;;;;;8.75;5.70;;;3.20;99.90;;;;;;4993814;28;20085;-80
2023/12/08 03:53:18;;;;;;;14.00;8.02;;;3.10;99.90;;;;;;4981443;28;20031;-80
2023/12/08 03:55:43;;;;;;;9.68;6.22;;;3.00;99.90;;;;;;4998906;28;20064;-81
2023/12/08 03:58:09;;;;;;;11.68;6.72;;;3.10;99.90;;;;;;4996959;28;20038;-80
2023/12/08 04:00:34;;;;;;;18.50;6.53;;;3.20;99.90;;;;;;4978471;28;20465;-80
2023/12/08 04:03:00;;;;;;;9.32;5.28;;;3.10;99.90;;;;;;4975438;28;20498;-78
2023/12/08 04:05:26;;;;;;;9.63;6.07;;;3.20;99.90;;;;;;4983620;28;20049;-80
2023/12/08 04:07:51;;;;;;;15.52;7.57;;;3.10;99.90;;;;;;4985956;28;20030;-80
2023/12/08 04:10:17;;;;;;;13.23;6.43;;;3.10;99.90;;;;;;4996933;28;20380;-80
2023/12/08 04:12:42;;;;;;;8.93;5.22;;;3.10;99.90;;;;;;4995939;28;20038;-80
2023/12/08 04:15:08;;;;;;;13.65;6.90;;;3.10;99.90;;;;;;4994083;28;20410;-79
2023/12/08 04:17:34;;;;;;;11.00;5.88;;;3.10;99.90;;;;;;4996373;28;20502;-80
2023/12/08 04:19:59;;;;;;;14.43;8.02;;;3.00;99.90;;;;;;4985242;28;20080;-80
2023/12/08 04:22:26;;;;;;;13.00;6.88;;;3.00;99.90;;;;;;4960093;28;20045;-81
2023/12/08 04:24:52;;;;;;;13.48;8.13;;;3.10;99.90;;;;;;4984537;28;20034;-77
2023/12/08 04:27:17;;;;;;;13.98;8.02;;;3.00;99.90;;;;;;4997181;28;20145;-77
2023/12/08 04:29:43;;;;;;;11.00;6.88;;;3.00;99.90;;;;;;4993144;28;20471;-76
2023/12/08 04:32:09;;;;;;;12.90;7.03;;;3.00;99.90;;;;;;4980460;28;20558;-77
2023/12/08 04:34:34;;;;;;;10.75;6.13;;;3.00;99.90;;;;;;4990682;28;20037;-76
2023/12/08 04:37:00;;;;;;;9.77;5.72;;;3.00;99.90;;;;;;4982849;28;20030;-77
2023/12/08 04:39:25;;;;;;;10.45;5.88;;;3.00;99.90;;;;;;4984009;28;20180;-77
2023/12/08 04:41:51;;;;;;;10.80;6.88;;;3.00;99.90;;;;;;4996623;28;20030;-77
2023/12/08 04:44:16;;;;;;;14.15;6.47;;;3.00;99.90;;;;;;4980477;28;20141;-77
2023/12/08 04:46:43;;;;;;;12.90;7.43;;;3.00;99.90;;;;;;4994821;28;20425;-76
2023/12/08 04:49:08;;;;;;;10.65;7.00;;;3.00;99.90;;;;;;4988671;28;20030;-77
2023/12/08 04:51:35;;;;;;;12.60;7.47;;;3.00;99.90;;;;;;4986209;28;20049;-76
2023/12/08 04:54:01;;;;;;;10.30;6.53;;;3.00;99.90;;;;;;4995778;28;20082;-77
2023/12/08 04:56:27;;;;;;;12.25;7.60;;;3.10;99.90;;;;;;4999359;28;20865;-76
2023/12/08 04:58:52;;;;;;;11.73;7.30;;;3.10;99.90;;;;;;4984914;28;20030;-76
2023/12/08 05:01:18;;;;;;;11.68;6.72;;;3.00;99.90;;;;;;4987606;28;20044;-76
2023/12/08 05:03:43;;;;;;;13.68;7.65;;;3.00;99.90;;;;;;4987564;28;20524;-77
2023/12/08 05:06:09;;;;;;;12.85;7.15;;;3.10;99.90;;;;;;4981357;28;20045;-76
2023/12/08 05:08:35;;;;;;;13.30;8.00;;;3.10;99.90;;;;;;4998766;28;20117;-76
2023/12/08 05:11:01;;;;;;;10.27;6.32;;;3.10;99.90;;;;;;4990184;28;20604;-76
2023/12/08 05:13:26;;;;;;;2.65;2.45;;;3.10;99.90;;;;;;4999073;28;20105;-76
2023/12/08 05:15:52;;;;;;;11.30;7.53;;;3.10;99.90;;;;;;4964444;28;20061;-76
2023/12/08 05:18:17;;;;;;;6.53;3.65;;;3.00;99.90;;;;;;4983661;28;20375;-76
2023/12/08 05:20:43;;;;;;;12.00;6.70;;;3.00;99.90;;;;;;5002828;28;20478;-76
2023/12/08 05:23:09;;;;;;;14.05;7.32;;;3.10;99.90;;;;;;4986281;28;20393;-75
2023/12/08 05:25:34;;;;;;;12.70;7.43;;;3.10;99.90;;;;;;4983760;28;20084;-75
2023/12/08 05:28:00;;;;;;;13.80;8.75;;;3.00;99.90;;;;;;4999662;28;20038;-75
2023/12/08 05:30:27;;;;;;;15.07;8.43;;;3.00;99.90;;;;;;4994930;28;20038;-76
2023/12/08 05:32:53;;;;;;;17.98;8.43;;;2.90;99.90;;;;;;4982971;28;20866;-76
2023/12/08 05:35:19;;;;;;;19.30;9.05;;;3.00;99.90;;;;;;4987172;28;20048;-79
2023/12/08 05:37:44;;;;;;;15.50;9.43;;;3.00;99.90;;;;;;5000500;28;20554;-79
2023/12/08 05:40:10;;;;;;;8.80;5.78;;;3.00;99.90;;;;;;4999600;28;20030;-79
2023/12/08 05:42:36;;;;;;;13.43;7.95;;;3.00;99.90;;;;;;4998966;28;20038;-79
2023/12/08 05:45:02;;;;;;;14.15;7.45;;;3.00;99.90;;;;;;4998727;28;20441;-79
2023/12/08 05:47:27;;;;;;;14.18;8.15;;;3.00;99.90;;;;;;4970169;28;20055;-80
2023/12/08 05:49:53;;;;;;;11.13;6.15;;;3.00;99.90;;;;;;5000335;28;20128;-80
2023/12/08 05:52:18;;;;;;;14.93;7.30;;;3.00;99.90;;;;;;5000454;28;20430;-80
2023/12/08 05:54:44;;;;;;;16.27;9.10;;;3.00;99.90;;;;;;5000769;28;20423;-80
2023/12/08 05:57:10;;;;;;;15.70;8.73;;;3.00;99.90;;;;;;4966706;28;20550;-80
2023/12/08 05:59:35;;;;;;;13.57;8.90;;;3.00;99.90;;;;;;4986370;28;20027;-79
2023/12/08 06:02:01;;;;;;;15.65;8.05;;;3.10;99.90;;;;;;4980009;28;20076;-79
2023/12/08 06:04:26;;;;;;;12.40;8.07;;;3.00;99.90;;;;;;4996767;28;20045;-79
2023/12/08 06:06:52;;;;;;;15.68;8.02;;;3.00;99.90;;;;;;4985735;28;20029;-79
2023/12/08 06:09:17;;;;;;;18.40;10.27;;;3.00;99.90;;;;;;4983618;28;20804;-80
2023/12/08 06:11:43;;;;;;;10.07;5.28;;;3.00;99.90;;;;;;4997050;28;20022;-80
2023/12/08 06:14:09;;;;;;;16.17;8.75;;;3.00;99.90;;;;;;4993477;28;20034;-80
2023/12/08 06:16:34;;;;;;;13.23;8.00;;;3.00;99.90;;;;;;5000270;28;20045;-80
2023/12/08 06:19:00;;;;;;;17.73;9.48;;;3.00;99.90;;;;;;4984839;28;20041;-79
2023/12/08 06:21:25;;;;;;;7.40;4.53;;;3.00;99.90;;;;;;5015473;28;20041;-80
2023/12/08 06:23:51;;;;;;;16.33;9.00;;;3.00;99.90;;;;;;4984870;28;20042;-80
2023/12/08 06:26:17;;;;;;;15.30;7.88;;;3.00;99.90;;;;;;4986037;28;20124;-80
2023/12/08 06:28:42;;;;;;;15.93;8.90;;;3.00;99.90;;;;;;5002231;28;20806;-80
2023/12/08 06:31:09;;;;;;;18.90;10.70;;;3.10;99.90;;;;;;5001613;28;20053;-80
2023/12/08 06:33:35;;;;;;;16.67;9.45;;;3.10;99.90;;;;;;4981901;28;20037;-80
2023/12/08 06:36:01;;;;;;;18.35;11.05;;;3.10;99.90;;;;;;5000891;28;20034;-79
2023/12/08 06:38:26;;;;;;;17.75;9.50;;;3.00;99.90;;;;;;4998124;28;20532;-80
2023/12/08 06:40:53;;;;;;;16.35;9.55;;;3.10;99.90;;;;;;4984660;28;20064;-80
2023/12/08 06:43:19;;;;;;;15.00;9.00;;;3.10;99.90;;;;;;4997879;28;20537;-79
2023/12/08 06:45:45;;;;;;;17.73;11.07;;;3.10;99.90;;;;;;4984087;28;20038;-79
2023/12/08 06:48:11;;;;;;;14.25;9.10;;;3.10;99.90;;;;;;4996230;28;20026;-79
2023/12/08 06:50:36;;;;;;;16.27;9.73;;;3.10;99.90;;;;;;4980277;28;20705;-79
2023/12/08 06:53:02;;;;;;;8.27;4.68;;;3.10;99.90;;;;;;4972845;28;20486;-80
2023/12/08 06:55:27;;;;;;;9.63;4.63;;;3.10;99.90;;;;;;5011891;28;20038;-80
2023/12/08 06:57:53;;;;;;;14.32;7.40;;;3.20;99.90;;;;;;4986378;28;20393;-79
2023/12/08 07:00:19;;;;;;;7.78;4.55;;;3.20;99.90;;;;;;4987535;28;20410;-79
2023/12/08 07:02:45;;;;;;;17.83;10.27;;;3.20;99.90;;;;;;4993995;28;20038;-81
2023/12/08 07:05:11;;;;;;;19.10;10.30;;;3.20;99.90;;;;;;4972828;28;20034;-80
2023/12/08 07:07:36;;;;;;;11.23;5.95;;;3.20;99.90;;;;;;4979549;28;20035;-81
2023/12/08 07:10:02;;;;;;;19.83;12.23;;;3.20;99.90;;;;;;5008940;28;20110;-80
2023/12/08 07:12:27;;;;;;;13.95;8.23;;;3.20;99.90;;;;;;4999745;28;20056;-81
2023/12/08 07:14:53;;;;;;;11.23;7.32;;;3.20;99.90;;;;;;4996473;28;20045;-82
2023/12/08 07:17:19;;;;;;;17.55;9.60;;;3.20;99.90;;;;;;4997186;28;20421;-81
2023/12/08 07:19:44;;;;;;;20.20;11.68;;;3.20;99.90;;;;;;4997206;28;20492;-81
2023/12/08 07:22:10;;;;;;;18.00;10.10;;;3.20;99.90;;;;;;4997125;28;20685;-81
2023/12/08 07:24:37;;;;;;;15.30;9.15;;;3.20;99.90;;;;;;4983865;28;20109;-80
2023/12/08 07:27:03;;;;;;;19.25;11.20;;;3.20;99.90;;;;;;4982974;28;20033;-81
2023/12/08 07:29:29;;;;;;;14.88;9.95;;;3.20;99.90;;;;;;4978134;28;20022;-81
2023/12/08 07:31:54;;;;;;;18.88;9.80;;;3.10;99.90;;;;;;4988822;28;20521;-81
2023/12/08 07:34:20;;;;;;;13.60;7.63;;;3.20;99.90;;;;;;4984156;28;20038;-81
2023/12/08 07:36:45;;;;;;;16.63;8.95;;;3.20;99.90;;;;;;4981501;28;20502;-80
2023/12/08 07:39:11;;;;;;;15.70;9.25;;;3.20;99.90;;;;;;4982258;28;20092;-80
2023/12/08 07:41:37;;;;;;;16.65;10.80;;;3.20;99.90;;;;;;4995261;28;20030;-80
2023/12/08 07:44:02;;;;;;;15.95;7.95;;;3.20;99.90;;;;;;4997323;28;20033;-79
2023/12/08 07:46:28;;;;;;;19.48;10.18;;;3.20;99.90;;;;;;4997547;28;20056;-80
2023/12/08 07:48:53;;;;;;;14.05;9.35;;;3.20;99.90;;;;;;4983145;28;20022;-79
2023/12/08 07:51:19;;;;;;;18.55;10.05;;;3.20;99.90;;;;;;4998506;28;20041;-80
2023/12/08 07:53:45;;;;;;;18.83;10.32;;;3.20;99.90;;;;;;4979062;28;20033;-80
2023/12/08 07:56:12;;;;;;;15.50;9.27;;;3.30;99.90;;;;;;4995657;28;20048;-80
2023/12/08 07:58:38;;;;;;;18.45;9.02;;;3.30;99.90;;;;;;4996721;28;20041;-80
2023/12/08 08:01:04;;;;;;;17.75;10.75;;;3.30;99.90;;;;;;4998437;28;20030;-81
2023/12/08 08:03:30;;;;;;;18.85;12.48;;;3.30;99.90;;;;;;4990984;28;20065;-80
2023/12/08 08:05:58;;;;;;;20.40;10.80;;;3.30;99.90;;;;;;4994624;28;20034;-80
2023/12/08 08:08:23;;;;;;;23.15;11.25;;;3.30;99.90;;;;;;4984908;28;20041;-80
2023/12/08 08:10:49;;;;;;;20.80;12.15;;;3.30;99.90;;;;;;4982157;28;20030;-79
2023/12/08 08:13:15;;;;;;;11.35;6.30;;;3.30;99.90;;;;;;4980654;28;20034;-80
2023/12/08 08:15:41;;;;;;;18.77;10.77;;;3.30;99.90;;;;;;4967800;28;20066;-80
2023/12/08 08:18:07;;;;;;;16.33;7.68;;;3.30;99.90;;;;;;4998896;28;20464;-80
2023/12/08 08:20:34;;;;;;;16.27;9.18;;;3.30;99.90;;;;;;5001467;28;20026;-81
2023/12/08 08:22:59;;;;;;;20.75;11.77;;;3.40;99.90;;;;;;4998873;28;20042;-81
2023/12/08 08:25:26;;;;;;;19.48;10.20;;;3.40;99.90;;;;;;5001899;28;20034;-80
2023/12/08 08:27:53;;;;;;;16.15;9.73;;;3.40;99.90;;;;;;5004918;28;20038;-81
2023/12/08 08:30:20;;;;;;;19.92;11.27;;;3.40;99.90;;;;;;5002468;28;20056;-80
2023/12/08 08:32:45;;;;;;;20.75;11.52;;;3.40;99.90;;;;;;4998993;28;20035;-79
2023/12/08 08:35:11;;;;;;;22.13;11.35;;;3.40;99.90;;;;;;4997164;28;20415;-79
2023/12/08 08:37:36;;;;;;;22.30;13.25;;;3.40;99.90;;;;;;4989707;28;20085;-79
2023/12/08 08:40:05;;;;;;;23.58;12.85;;;3.50;99.90;;;;;;5004099;28;20030;-79
2023/12/08 08:42:31;;;;;;;24.70;13.35;;;3.50;99.90;;;;;;4998939;28;20505;-80
2023/12/08 08:44:56;;;;;;;22.48;12.15;;;3.50;99.90;;;;;;5000884;28;20045;-79
2023/12/08 08:47:22;;;;;;;14.93;7.75;;;3.50;99.90;;;;;;4979092;28;20034;-80
2023/12/08 08:49:48;;;;;;;15.02;9.88;;;3.50;99.90;;;;;;4975750;28;20026;-80
2023/12/08 08:52:13;;;;;;;19.23;11.20;;;3.50;99.90;;;;;;4982819;28;20383;-80
2023/12/08 08:54:39;;;;;;;18.50;8.90;;;3.60;99.90;;;;;;4999837;28;20113;-81
2023/12/08 08:57:04;;;;;;;14.85;8.27;;;3.50;99.90;;;;;;4994448;28;20041;-80
2023/12/08 08:59:30;;;;;;;17.08;10.50;;;3.60;99.90;;;;;;4987476;28;20042;-79
2023/12/08 09:01:56;;;;;;;20.77;12.68;;;3.60;99.90;;;;;;4980768;28;20035;-80
2023/12/08 09:04:22;;;;;;;23.02;12.48;;;3.60;99.90;;;;;;4972816;28;20085;-79
2023/12/08 09:06:48;;;;;;;23.40;12.40;;;3.60;99.90;;;;;;4986651;28;20034;-79
2023/12/08 09:09:13;;;;;;;17.20;9.05;;;3.70;99.90;;;;;;4996993;28;20121;-81
2023/12/08 09:11:39;;;;;;;17.23;8.15;;;3.70;99.90;;;;;;4990164;28;20042;-79
2023/12/08 09:14:04;;;;;;;22.10;9.30;;;3.70;99.90;;;;;;4979987;28;20030;-80
2023/12/08 09:16:30;;;;;;;16.98;10.75;;;3.70;99.90;;;;;;4986647;28;20335;-80
2023/12/08 09:18:55;;;;;;;19.48;7.57;;;3.70;99.90;;;;;;4988092;28;20076;-80
2023/12/08 09:21:21;;;;;;;18.15;8.68;;;3.80;99.90;;;;;;4983281;28;20092;-80
2023/12/08 09:23:46;;;;;;;20.80;12.00;;;3.70;99.90;;;;;;4970305;28;20153;-80
2023/12/08 09:26:13;;;;;;;21.42;11.43;;;3.80;99.90;;;;;;4971235;28;20033;-80
2023/12/08 09:28:39;;;;;;;27.08;14.90;;;3.80;99.90;;;;;;4970393;28;20027;-80
2023/12/08 09:31:04;;;;;;;22.13;11.90;;;3.80;99.90;;;;;;4987494;28;20397;-80
2023/12/08 09:33:30;;;;;;;26.90;13.32;;;3.80;99.90;;;;;;4999743;28;20156;-80
2023/12/08 09:35:57;;;;;;;20.70;12.60;;;3.80;99.90;;;;;;4994892;28;20090;-80
2023/12/08 09:38:24;;;;;;;23.27;11.00;;;3.90;99.90;;;;;;4957652;28;20109;-80
2023/12/08 09:40:49;;;;;;;20.92;10.77;;;3.90;99.90;;;;;;4988556;28;20038;-80
2023/12/08 09:43:22;;;;;;;16.42;8.57;;;3.90;99.90;;;;;;4967862;28;20311;-80
2023/12/08 09:45:48;;;;;;;17.33;9.98;;;3.90;99.90;;;;;;4981700;28;20049;-80
2023/12/08 09:48:13;;;;;;;18.13;10.65;;;3.90;99.90;;;;;;5011347;28;20030;-81
2023/12/08 09:50:40;;;;;;;21.38;12.55;;;4.00;99.90;;;;;;4975896;28;20481;-80
2023/12/08 09:53:07;;;;;;;18.58;9.65;;;4.00;99.90;;;;;;4978856;28;20348;-80
2023/12/08 09:55:40;;;;;;;23.50;13.38;;;4.00;99.90;;;;;;4984104;28;20037;-80
2023/12/08 09:58:05;;;;;;;23.45;13.55;;;4.00;99.90;;;;;;4986899;28;20117;-80
2023/12/08 10:00:33;;;;;;;17.38;9.43;;;4.00;99.90;;;;;;4983416;28;20133;-81
2023/12/08 10:03:00;;;;;;;20.95;10.73;;;4.10;99.90;;;;;;4977537;28;20632;-80
2023/12/08 10:05:27;;;;;;;17.52;10.02;;;4.10;99.90;;;;;;4984376;28;20038;-81
2023/12/08 10:07:53;;;;;;;18.50;9.70;;;4.10;99.90;;;;;;4999640;28;20385;-80
2023/12/08 10:10:19;;;;;;;18.55;11.88;;;4.10;99.90;;;;;;4985267;28;20057;-80
2023/12/08 10:12:45;;;;;;;17.27;9.90;;;4.10;99.90;;;;;;5001581;28;20798;-80
2023/12/08 10:15:11;;;;;;;18.08;10.73;;;4.10;99.90;;;;;;4998791;28;20117;-77
2023/12/08 10:17:49;;;;;;;20.30;11.95;;;4.20;99.90;;;;;;4982026;28;22454;-78
2023/12/08 10:20:15;;;;;;;17.73;8.52;;;4.20;99.90;;;;;;4982407;28;20030;-79
2023/12/08 10:22:51;;;;;;;19.50;10.77;;;4.20;99.90;;;;;;4985609;28;20048;-78
2023/12/08 10:25:23;;;;;;;17.67;10.25;;;4.30;99.90;;;;;;4998362;28;20060;-77
2023/12/08 10:27:51;;;;;;;23.05;10.15;;;4.30;99.90;;;;;;4981649;28;20446;-78
2023/12/08 10:30:18;;;;;;;15.07;9.52;;;4.30;99.90;;;;;;5001483;28;20057;-78
2023/12/08 10:32:44;;;;;;;16.60;9.82;;;4.30;99.90;;;;;;5010105;28;20038;-77
2023/12/08 10:35:12;;;;;;;19.10;11.27;;;4.40;99.90;;;;;;4980931;28;20190;-77
2023/12/08 10:37:41;;;;;;;21.05;10.77;;;4.40;99.90;;;;;;4980086;28;20068;-77
2023/12/08 10:40:12;;;;;;;16.88;10.10;;;4.50;99.90;;;;;;5007023;28;20040;-79
2023/12/08 10:42:37;;;;;;;19.77;11.88;;;4.50;99.90;;;;;;5000842;28;20050;-77
2023/12/08 10:45:13;;;;;;;10.38;6.28;;;4.50;99.90;;;;;;5006434;28;20033;-78
2023/12/08 10:47:43;;;;;;;8.35;4.53;;;4.50;99.90;;;;;;4991750;28;20026;-79
2023/12/08 10:50:09;;;;;;;15.52;7.95;;;4.50;99.90;;;;;;5004584;28;20095;-78
2023/12/08 10:52:38;;;;;;;10.88;6.20;;;4.50;99.90;;;;;;4986820;28;20061;-78
2023/12/08 10:55:07;;;;;;;14.18;7.85;;;4.60;99.90;;;;;;5004871;28;20057;-78
2023/12/08 10:57:36;;;;;;;11.90;6.65;;;4.60;99.90;;;;;;4991538;28;20060;-77
2023/12/08 11:02:49;;;;;;;17.95;9.38;;;4.60;99.90;;;;;;4995825;28;20035;-77
2023/12/08 11:05:22;;;;;;;4.45;2.38;;;4.60;99.90;;;;;;5006762;28;21284;-77
2023/12/08 11:07:48;;;;;;;17.35;8.52;;;4.60;99.90;;;;;;4993098;28;20080;-77
2023/12/08 11:10:14;;;;;;;14.65;7.50;;;4.60;99.90;;;;;;4995846;28;20038;-76
2023/12/08 11:13:04;;;;;;;14.55;7.95;;;4.60;99.90;;;;;;4980857;28;20091;-76
2023/12/08 11:15:32;;;;;;;16.90;7.45;;;4.70;99.90;;;;;;5001030;28;20030;-77
2023/12/08 11:18:02;;;;;;;16.52;10.07;;;4.70;99.90;;;;;;4983253;28;20758;-75
2023/12/08 11:20:28;;;;;;;19.17;10.60;;;4.70;99.90;;;;;;5015227;28;20479;-76
2023/12/08 11:22:55;;;;;;;18.10;9.90;;;4.70;99.90;;;;;;4988933;28;20083;-77
2023/12/08 11:25:30;;;;;;;21.83;12.40;;;4.70;99.90;;;;;;4987351;28;20157;-79
2023/12/08 11:28:02;;;;;;;18.52;9.73;;;4.70;99.90;;;;;;4989151;28;20039;-80
2023/12/08 11:30:40;;;;;;;5.63;3.30;;;4.70;99.90;;;;;;5001087;28;20516;-79
2023/12/08 11:33:14;;;;;;;24.75;12.90;;;4.70;99.90;;;;;;4978614;28;20560;-79
2023/12/08 11:35:40;;;;;;;16.40;7.03;;;4.70;99.90;;;;;;4986434;28;20042;-79
2023/12/08 11:38:06;;;;;;;19.35;10.75;;;4.80;99.90;;;;;;4990157;28;20037;-80
2023/12/08 11:40:32;;;;;;;15.20;7.68;;;4.80;99.90;;;;;;5001586;28;20033;-79
2023/12/08 11:42:57;;;;;;;13.85;6.45;;;4.80;99.90;;;;;;4987889;28;20034;-79
2023/12/08 11:45:23;;;;;;;19.52;10.15;;;4.80;99.90;;;;;;4983637;28;20402;-80
2023/12/08 11:47:48;;;;;;;17.45;8.07;;;4.80;99.90;;;;;;5000685;28;20030;-79
2023/12/08 11:50:14;;;;;;;16.83;8.88;;;4.80;99.90;;;;;;5001478;28;20377;-79
2023/12/08 11:52:41;;;;;;;22.30;12.63;;;4.80;99.90;;;;;;4998793;28;20121;-79
2023/12/08 11:55:20;;;;;;;20.60;11.70;;;4.90;99.90;;;;;;4994518;28;20038;-79
2023/12/08 11:58:03;;;;;;;15.00;8.25;;;4.90;99.90;;;;;;4964167;28;20702;-79
2023/12/08 12:00:31;;;;;;;18.50;9.15;;;4.90;99.90;;;;;;5000182;28;20546;-80
2023/12/08 12:02:57;;;;;;;15.68;5.28;;;4.90;99.90;;;;;;4997140;28;20084;-79
2023/12/08 12:05:23;;;;;;;21.58;12.95;;;4.90;99.90;;;;;;5001388;28;20048;-79
2023/12/08 12:07:50;;;;;;;12.68;6.40;;;5.00;99.90;;;;;;4998845;28;20046;-78
2023/12/08 12:10:26;;;;;;;18.63;10.10;;;5.10;99.90;;;;;;5001213;28;20466;-80
2023/12/08 12:12:57;;;;;;;22.27;12.38;;;5.10;99.90;;;;;;4980078;28;20044;-79
2023/12/08 12:15:24;;;;;;;14.20;7.82;;;5.10;99.90;;;;;;5000981;28;20073;-79
2023/12/08 12:17:51;;;;;;;24.65;12.68;;;5.10;99.90;;;;;;4979592;28;20045;-79
2023/12/08 12:20:17;;;;;;;16.83;8.57;;;5.20;99.90;;;;;;5003378;28;20540;-79
2023/12/08 12:22:43;;;;;;;20.88;10.43;;;5.20;99.90;;;;;;4981828;28;20034;-79
2023/12/08 12:25:09;;;;;;;20.50;11.45;;;5.20;99.90;;;;;;5014883;28;20034;-79
2023/12/08 12:27:46;;;;;;;15.80;9.13;;;5.20;99.90;;;;;;4998363;28;20036;-79
2023/12/08 12:30:12;;;;;;;;;;;5.30;99.90;;;;;;5002062;28;20069;-79
2023/12/08 12:32:38;;;;;;;22.83;10.48;;;5.30;99.90;;;;;;4986366;28;20529;-78
2023/12/08 12:35:04;;;;;;;25.30;12.05;;;5.30;99.90;;;;;;4998423;28;20038;-80
2023/12/08 12:37:30;;;;;;;12.25;7.78;;;5.30;99.90;;;;;;4986732;28;20026;-79
2023/12/08 12:39:58;;;;;;;20.85;11.43;;;5.40;99.90;;;;;;5002036;28;20080;-79
2023/12/08 12:42:24;;;;;;;27.50;12.00;;;5.40;99.90;;;;;;4984372;28;20944;-80
2023/12/08 12:44:49;;;;;;;20.75;10.57;;;5.40;99.90;;;;;;4999896;28;20038;-79
2023/12/08 12:47:22;;;;;;;15.30;7.13;;;5.50;99.90;;;;;;4996806;28;20720;-79